createdAt,value
2019-04-01T00:01:27.998Z,99.90
2019-04-01T00:03:58.083Z,99.90
2019-04-01T00:06:28.087Z,99.90
2019-04-01T00:08:58.016Z,99.90
2019-04-01T00:11:27.887Z,99.90
2019-04-01T00:13:57.938Z,99.90
2019-04-01T00:16:27.985Z,99.90
2019-04-01T00:19:03.296Z,99.90
2019-04-01T00:21:29.614Z,99.90
2019-04-01T00:23:59.548Z,99.90
2019-04-01T00:26:29.422Z,99.90
2019-04-01T00:28:59.377Z,99.90
2019-04-01T00:31:29.370Z,99.90
2019-04-01T00:33:59.379Z,99.90
2019-04-01T00:36:29.462Z,99.90
2019-04-01T00:38:59.415Z,99.90
2019-04-01T00:41:29.455Z,99.90
2019-04-01T00:44:02.175Z,99.90
2019-04-01T00:46:32.653Z,99.90
2019-04-01T00:49:02.637Z,99.90
2019-04-01T00:51:32.676Z,99.90
2019-04-01T00:54:02.715Z,99.90
2019-04-01T00:56:32.686Z,99.90
2019-04-01T00:59:02.737Z,99.90
2019-04-01T01:01:32.727Z,99.90
2019-04-01T01:04:02.857Z,99.90
2019-04-01T01:06:32.879Z,99.90
2019-04-01T01:09:03.519Z,99.90
2019-04-01T01:11:33.887Z,99.90
2019-04-01T01:14:03.947Z,99.90
2019-04-01T01:16:33.850Z,99.90
2019-04-01T01:19:03.877Z,99.90
2019-04-01T01:21:35.392Z,99.90
2019-04-01T01:24:05.344Z,99.90
2019-04-01T01:26:35.338Z,99.90
2019-04-01T01:29:05.257Z,99.90
2019-04-01T01:31:35.291Z,99.90
2019-04-01T01:34:05.176Z,99.90
2019-04-01T01:36:36.057Z,99.90
2019-04-01T01:39:06.368Z,99.90
2019-04-01T01:41:36.235Z,99.90
2019-04-01T01:44:06.226Z,99.90
2019-04-01T01:46:36.123Z,99.90
2019-04-01T01:49:06.087Z,99.90
2019-04-01T01:51:36.127Z,99.90
2019-04-01T01:54:06.364Z,99.90
2019-04-01T01:56:36.352Z,99.90
2019-04-01T01:59:06.274Z,99.90
2019-04-01T02:01:36.313Z,99.90
2019-04-01T02:04:06.305Z,99.90
2019-04-01T02:06:37.253Z,99.90
2019-04-01T02:09:07.431Z,99.90
2019-04-01T02:11:37.439Z,99.90
2019-04-01T02:14:07.519Z,99.90
2019-04-01T02:16:37.522Z,99.90
2019-04-01T02:19:07.487Z,99.90
2019-04-01T02:21:37.536Z,99.90
2019-04-01T02:24:07.551Z,99.90
2019-04-01T02:26:37.563Z,99.90
2019-04-01T02:29:07.587Z,99.90
2019-04-01T02:31:37.600Z,99.90
2019-04-01T02:34:07.492Z,99.90
2019-04-01T02:36:37.544Z,99.90
2019-04-01T02:39:09.029Z,99.90
2019-04-01T02:41:38.972Z,99.90
2019-04-01T02:44:09.045Z,99.90
2019-04-01T02:46:39.043Z,99.90
2019-04-01T02:49:09.027Z,99.90
2019-04-01T02:51:39.071Z,99.90
2019-04-01T02:54:09.072Z,99.90
2019-04-01T02:56:39.099Z,99.90
2019-04-01T02:59:09.212Z,99.90
2019-04-01T03:01:39.146Z,99.90
2019-04-01T03:04:09.153Z,99.90
2019-04-01T03:06:40.057Z,99.90
2019-04-01T03:09:10.209Z,99.90
2019-04-01T03:11:40.170Z,99.90
2019-04-01T03:14:10.140Z,99.90
2019-04-01T03:16:40.259Z,99.90
2019-04-01T03:19:10.213Z,99.90
2019-04-01T03:21:40.174Z,99.90
2019-04-01T03:24:10.264Z,99.90
2019-04-01T03:26:40.295Z,99.90
2019-04-01T03:29:10.296Z,99.90
2019-04-01T03:31:40.201Z,99.90
2019-04-01T03:34:10.106Z,99.90
2019-04-01T03:36:40.157Z,99.90
2019-04-01T03:39:10.154Z,99.90
2019-04-01T03:41:40.160Z,99.90
2019-04-01T03:44:10.183Z,99.90
2019-04-01T03:46:41.243Z,99.90
2019-04-01T03:49:11.188Z,99.90
2019-04-01T03:51:41.213Z,99.90
2019-04-01T03:54:11.148Z,99.90
2019-04-01T03:56:41.093Z,99.90
2019-04-01T03:59:11.126Z,99.90
2019-04-01T04:01:41.107Z,99.90
2019-04-01T04:04:11.026Z,99.90
2019-04-01T04:06:41.957Z,99.90
2019-04-01T04:09:13.006Z,99.90
2019-04-01T04:11:42.995Z,99.90
2019-04-01T04:14:13.027Z,99.90
2019-04-01T04:16:43.039Z,99.90
2019-04-01T04:19:12.983Z,99.90
2019-04-01T04:21:43.367Z,99.90
2019-04-01T04:24:13.431Z,99.90
2019-04-01T04:26:43.410Z,99.90
2019-04-01T04:29:14.667Z,99.90
2019-04-01T04:31:44.807Z,99.90
2019-04-01T04:34:14.769Z,99.90
2019-04-01T04:36:44.724Z,99.90
2019-04-01T04:39:14.622Z,99.90
2019-04-01T04:41:44.607Z,99.90
2019-04-01T04:44:14.670Z,99.90
2019-04-01T04:46:44.635Z,99.90
2019-04-01T04:49:14.576Z,99.90
2019-04-01T04:51:44.600Z,99.90
2019-04-01T04:54:14.660Z,99.90
2019-04-01T04:56:44.740Z,99.90
2019-04-01T04:59:14.727Z,99.90
2019-04-01T05:01:44.651Z,99.90
2019-04-01T05:04:14.544Z,99.90
2019-04-01T05:06:44.460Z,99.90
2019-04-01T05:09:14.616Z,99.90
2019-04-01T05:11:44.602Z,99.90
2019-04-01T05:14:14.556Z,99.90
2019-04-01T05:16:44.534Z,99.90
2019-04-01T05:19:14.571Z,99.90
2019-04-01T05:21:45.186Z,99.90
2019-04-01T05:24:16.004Z,99.90
2019-04-01T05:26:47.398Z,99.90
2019-04-01T05:29:20.389Z,99.90
2019-04-01T05:31:52.635Z,99.90
2019-04-01T05:34:25.156Z,99.90
2019-04-01T05:36:55.173Z,99.90
2019-04-01T05:39:25.375Z,99.90
2019-04-01T05:41:55.389Z,99.90
2019-04-01T05:44:25.479Z,99.90
2019-04-01T05:46:55.831Z,99.90
2019-04-01T05:49:25.816Z,99.90
2019-04-01T05:51:55.893Z,99.90
2019-04-01T05:54:25.831Z,99.90
2019-04-01T05:56:55.832Z,99.90
2019-04-01T05:59:26.691Z,99.90
2019-04-01T06:01:56.703Z,99.90
2019-04-01T06:04:26.816Z,99.90
2019-04-01T06:06:57.057Z,99.90
2019-04-01T06:09:27.010Z,99.90
2019-04-01T06:11:57.022Z,99.90
2019-04-01T06:14:27.034Z,99.90
2019-04-01T06:16:57.013Z,99.90
2019-04-01T06:19:26.980Z,99.90
2019-04-01T06:21:57.042Z,99.90
2019-04-01T06:24:27.181Z,99.90
2019-04-01T06:26:57.190Z,99.90
2019-04-01T06:29:27.519Z,99.90
2019-04-01T06:31:57.391Z,99.90
2019-04-01T06:34:27.296Z,99.90
2019-04-01T06:36:57.205Z,99.90
2019-04-01T06:39:27.123Z,99.90
2019-04-01T06:41:57.035Z,99.90
2019-04-01T06:44:27.075Z,99.90
2019-04-01T06:46:58.138Z,99.90
2019-04-01T06:49:28.022Z,99.90
2019-04-01T06:51:58.131Z,99.90
2019-04-01T06:54:28.150Z,99.90
2019-04-01T06:56:58.287Z,99.90
2019-04-01T06:59:28.241Z,99.90
2019-04-01T07:01:58.214Z,99.90
2019-04-01T07:04:28.198Z,99.90
2019-04-01T07:06:58.205Z,99.90
2019-04-01T07:09:28.248Z,99.90
2019-04-01T07:11:58.313Z,99.90
2019-04-01T07:14:28.761Z,99.90
2019-04-01T07:16:58.870Z,99.90
2019-04-01T07:19:28.800Z,99.90
2019-04-01T07:21:58.865Z,99.90
2019-04-01T07:24:29.988Z,99.90
2019-04-01T07:26:59.938Z,99.90
2019-04-01T07:29:29.877Z,99.90
2019-04-01T07:31:59.873Z,99.90
2019-04-01T07:34:29.835Z,99.90
2019-04-01T07:36:59.859Z,99.90
2019-04-01T07:39:30.441Z,99.90
2019-04-01T07:42:00.468Z,99.90
2019-04-01T07:44:30.500Z,99.90
2019-04-01T07:47:00.535Z,99.90
2019-04-01T07:49:30.634Z,99.90
2019-04-01T07:52:00.726Z,99.90
2019-04-01T07:54:30.710Z,99.90
2019-04-01T07:57:01.789Z,99.90
2019-04-01T07:59:31.933Z,99.90
2019-04-01T08:02:01.955Z,99.90
2019-04-01T08:04:32.257Z,99.90
2019-04-01T08:07:02.652Z,99.90
2019-04-01T08:09:33.953Z,99.90
2019-04-01T08:12:03.937Z,99.90
2019-04-01T08:14:34.010Z,99.90
2019-04-01T08:17:03.908Z,99.90
2019-04-01T08:19:33.880Z,99.90
2019-04-01T08:22:03.906Z,99.90
2019-04-01T08:24:33.946Z,99.90
2019-04-01T08:27:07.181Z,99.90
2019-04-01T08:29:35.389Z,99.90
2019-04-01T08:32:05.554Z,99.90
2019-04-01T08:34:35.779Z,99.90
2019-04-01T08:37:05.942Z,99.90
2019-04-01T08:39:35.979Z,99.90
2019-04-01T08:42:06.051Z,99.90
2019-04-01T08:44:36.094Z,99.90
2019-04-01T08:47:06.009Z,99.90
2019-04-01T08:49:36.041Z,99.90
2019-04-01T08:52:06.047Z,99.90
2019-04-01T08:54:36.041Z,99.90
2019-04-01T08:57:06.188Z,99.90
2019-04-01T08:59:36.554Z,99.90
2019-04-01T09:02:17.667Z,99.90
2019-04-01T09:04:38.278Z,99.90
2019-04-01T09:07:08.323Z,99.90
2019-04-01T09:09:38.466Z,99.90
2019-04-01T09:12:08.838Z,99.90
2019-04-01T09:14:39.135Z,99.90
2019-04-01T09:17:09.251Z,99.90
2019-04-01T09:19:39.291Z,99.90
2019-04-01T09:22:09.526Z,99.90
2019-04-01T09:24:39.528Z,99.90
2019-04-01T09:27:09.524Z,99.90
2019-04-01T09:29:39.503Z,99.90
2019-04-01T09:32:09.692Z,99.90
2019-04-01T09:34:39.651Z,99.90
2019-04-01T09:37:09.696Z,99.90
2019-04-01T09:39:39.690Z,99.90
2019-04-01T09:42:09.795Z,99.90
2019-04-01T09:44:39.862Z,99.90
2019-04-01T09:47:09.734Z,99.90
2019-04-01T09:49:39.766Z,99.90
2019-04-01T09:52:09.768Z,99.90
2019-04-01T09:54:39.784Z,99.90
2019-04-01T09:57:17.433Z,99.90
2019-04-01T09:59:41.354Z,99.30
2019-04-01T10:02:11.469Z,99.90
2019-04-01T10:04:41.499Z,99.90
2019-04-01T10:07:11.539Z,99.90
2019-04-01T10:09:41.544Z,99.90
2019-04-01T10:12:11.476Z,99.90
2019-04-01T10:14:41.467Z,99.90
2019-04-01T10:17:11.376Z,99.90
2019-04-01T10:19:41.497Z,99.90
2019-04-01T10:22:11.499Z,99.80
2019-04-01T10:24:41.434Z,98.70
2019-04-01T10:27:11.449Z,95.80
2019-04-01T10:29:41.342Z,98.00
2019-04-01T10:32:11.364Z,98.70
2019-04-01T10:34:41.356Z,99.20
2019-04-01T10:37:11.301Z,96.70
2019-04-01T10:39:41.300Z,97.80
2019-04-01T10:42:11.402Z,95.40
2019-04-01T10:44:41.345Z,98.10
2019-04-01T10:47:11.350Z,95.00
2019-04-01T10:49:41.498Z,93.30
2019-04-01T10:52:11.740Z,89.40
2019-04-01T10:54:41.779Z,82.90
2019-04-01T10:57:11.850Z,94.20
2019-04-01T10:59:41.953Z,87.00
2019-04-01T11:02:12.085Z,93.30
2019-04-01T11:04:42.263Z,88.80
2019-04-01T11:07:12.399Z,90.20
2019-04-01T11:09:42.442Z,92.20
2019-04-01T11:12:12.438Z,84.80
2019-04-01T11:14:42.441Z,89.10
2019-04-01T11:17:12.312Z,88.00
2019-04-01T11:19:42.260Z,77.90
2019-04-01T11:22:13.039Z,81.90
2019-04-01T11:24:42.966Z,72.70
2019-04-01T11:27:12.895Z,73.10
2019-04-01T11:29:42.815Z,67.40
2019-04-01T11:32:13.567Z,75.80
2019-04-01T11:34:43.818Z,67.30
2019-04-01T11:37:13.841Z,77.40
2019-04-01T11:39:43.944Z,86.80
2019-04-01T11:42:14.124Z,76.70
2019-04-01T11:44:44.195Z,83.10
2019-04-01T11:47:14.357Z,86.00
2019-04-01T11:49:44.381Z,82.60
2019-04-01T11:52:15.716Z,90.90
2019-04-01T11:54:45.986Z,80.30
2019-04-01T11:57:15.918Z,61.10
2019-04-01T11:59:47.114Z,76.30
2019-04-01T12:02:17.123Z,71.70
2019-04-01T12:04:47.170Z,74.60
2019-04-01T12:07:17.193Z,61.20
2019-04-01T12:09:47.149Z,57.90
2019-04-01T12:12:23.847Z,79.10
2019-04-01T12:14:48.833Z,82.70
2019-04-01T12:17:18.864Z,68.80
2019-04-01T12:19:48.954Z,84.30
2019-04-01T12:22:19.960Z,79.40
2019-04-01T12:24:51.008Z,72.60
2019-04-01T12:27:21.118Z,75.10
2019-04-01T12:29:54.423Z,66.90
2019-04-01T12:32:24.469Z,59.00
2019-04-01T12:34:54.467Z,61.80
2019-04-01T12:37:24.415Z,55.90
2019-04-01T12:39:54.449Z,54.20
2019-04-01T12:42:25.285Z,56.80
2019-04-01T12:44:55.535Z,70.10
2019-04-01T12:47:25.515Z,82.40
2019-04-01T12:49:55.614Z,60.70
2019-04-01T12:52:25.697Z,61.00
2019-04-01T12:54:55.727Z,67.30
2019-04-01T12:57:25.788Z,61.50
2019-04-01T12:59:55.769Z,54.60
2019-04-01T13:02:25.797Z,55.80
2019-04-01T13:04:55.829Z,59.00
2019-04-01T13:07:25.926Z,60.10
2019-04-01T13:09:55.941Z,59.60
2019-04-01T13:12:27.482Z,61.40
2019-04-01T13:14:57.741Z,63.90
2019-04-01T13:17:27.697Z,60.90
2019-04-01T13:19:57.942Z,64.40
2019-04-01T13:22:27.954Z,69.60
2019-04-01T13:24:57.970Z,52.70
2019-04-01T13:27:28.889Z,54.80
2019-04-01T13:29:59.117Z,63.60
2019-04-01T13:32:29.113Z,71.20
2019-04-01T13:34:58.993Z,62.60
2019-04-01T13:37:29.008Z,57.00
2019-04-01T13:40:02.231Z,55.40
2019-04-01T13:42:30.751Z,58.80
2019-04-01T13:45:01.920Z,49.80
2019-04-01T13:47:32.452Z,58.80
2019-04-01T13:50:03.469Z,52.20
2019-04-01T13:52:33.695Z,54.20
2019-04-01T13:55:03.758Z,56.20
2019-04-01T13:57:34.849Z,65.80
2019-04-01T14:00:06.831Z,56.50
2019-04-01T14:02:36.832Z,54.00
2019-04-01T14:05:08.213Z,54.90
2019-04-01T14:07:38.180Z,62.40
2019-04-01T14:10:08.284Z,51.70
2019-04-01T14:12:38.229Z,63.20
2019-04-01T14:15:08.942Z,66.20
2019-04-01T14:17:38.947Z,57.00
2019-04-01T14:20:09.960Z,59.90
2019-04-01T14:22:39.896Z,63.20
2019-04-01T14:25:10.004Z,56.70
2019-04-01T14:27:40.867Z,57.90
2019-04-01T14:30:12.323Z,55.50
2019-04-01T14:32:42.292Z,70.20
2019-04-01T14:35:12.375Z,68.30
2019-04-01T14:37:42.369Z,67.70
2019-04-01T14:40:12.756Z,65.60
2019-04-01T14:42:42.793Z,65.90
2019-04-01T14:45:13.186Z,71.60
2019-04-01T14:47:56.480Z,72.30
2019-04-01T14:50:15.553Z,66.40
2019-04-01T14:52:45.569Z,78.40
2019-04-01T14:55:15.494Z,78.20
2019-04-01T14:57:45.451Z,79.00
2019-04-01T15:00:17.955Z,71.10
2019-04-01T15:02:48.044Z,65.10
2019-04-01T15:05:18.113Z,71.40
2019-04-01T15:07:48.101Z,62.40
2019-04-01T15:10:18.495Z,81.40
2019-04-01T15:12:48.498Z,80.30
2019-04-01T15:15:18.541Z,67.80
2019-04-01T15:17:48.412Z,78.20
2019-04-01T15:20:18.556Z,77.60
2019-04-01T15:22:48.665Z,70.20
2019-04-01T15:25:18.667Z,79.60
2019-04-01T15:27:49.581Z,75.80
2019-04-01T15:30:19.738Z,85.50
2019-04-01T15:32:49.791Z,85.40
2019-04-01T15:35:19.873Z,84.80
2019-04-01T15:37:49.868Z,80.40
2019-04-01T15:40:20.203Z,88.30
2019-04-01T15:42:50.327Z,88.00
2019-04-01T15:45:20.291Z,90.60
2019-04-01T15:47:50.199Z,86.80
2019-04-01T15:50:28.165Z,91.20
2019-04-01T15:52:51.606Z,84.50
2019-04-01T15:55:21.529Z,85.20
2019-04-01T15:57:51.408Z,93.00
2019-04-01T16:00:21.580Z,87.20
2019-04-01T16:02:51.509Z,94.50
2019-04-01T16:05:21.502Z,92.20
2019-04-01T16:07:51.413Z,93.90
2019-04-01T16:10:21.714Z,93.20
2019-04-01T16:12:51.752Z,92.10
2019-04-01T16:15:21.745Z,96.40
2019-04-01T16:17:53.803Z,97.30
2019-04-01T16:20:23.439Z,96.20
2019-04-01T16:22:53.433Z,95.30
2019-04-01T16:25:23.283Z,95.30
2019-04-01T16:27:54.200Z,97.40
2019-04-01T16:30:25.330Z,97.40
2019-04-01T16:32:55.361Z,97.00
2019-04-01T16:35:25.334Z,98.20
2019-04-01T16:37:57.766Z,96.80
2019-04-01T16:40:26.959Z,98.70
2019-04-01T16:42:56.882Z,99.30
2019-04-01T16:45:26.755Z,98.60
2019-04-01T16:47:56.774Z,98.90
2019-04-01T16:50:28.591Z,99.70
2019-04-01T16:52:58.613Z,98.40
2019-04-01T16:55:28.758Z,97.60
2019-04-01T16:57:58.765Z,97.60
2019-04-01T17:00:28.788Z,99.90
2019-04-01T17:02:58.639Z,99.90
2019-04-01T17:05:31.495Z,99.90
2019-04-01T17:08:01.496Z,99.90
2019-04-01T17:10:33.056Z,99.90
2019-04-01T17:13:03.285Z,99.90
2019-04-01T17:15:36.245Z,99.90
2019-04-01T17:18:06.279Z,97.50
2019-04-01T17:20:36.597Z,99.70
2019-04-01T17:23:07.002Z,99.90
2019-04-01T17:25:37.049Z,99.90
2019-04-01T17:28:07.991Z,99.90
2019-04-01T17:30:37.990Z,99.90
2019-04-01T17:33:08.546Z,99.90
2019-04-01T17:35:38.961Z,99.90
2019-04-01T17:38:08.916Z,99.90
2019-04-01T17:40:38.969Z,99.90
2019-04-01T17:43:09.643Z,99.90
2019-04-01T17:45:40.790Z,99.90
2019-04-01T17:48:11.126Z,99.90
2019-04-01T17:50:41.047Z,99.90
2019-04-01T17:53:11.789Z,99.90
2019-04-01T17:55:45.209Z,99.90
2019-04-01T17:58:15.254Z,99.90
2019-04-01T18:00:46.997Z,99.90
2019-04-01T18:03:16.920Z,99.90
2019-04-01T18:05:48.020Z,99.90
2019-04-01T18:08:18.014Z,99.90
2019-04-01T18:10:48.939Z,99.90
2019-04-01T18:13:19.093Z,99.90
2019-04-01T18:15:49.241Z,99.90
2019-04-01T18:18:26.808Z,99.90
2019-04-01T18:20:52.017Z,99.90
2019-04-01T18:23:22.332Z,99.90
2019-04-01T18:25:52.427Z,99.90
2019-04-01T18:28:22.527Z,99.90
2019-04-01T18:30:52.572Z,99.90
2019-04-01T18:33:22.492Z,99.90
2019-04-01T18:35:54.225Z,99.90
2019-04-01T18:38:24.194Z,99.90
2019-04-01T18:40:54.296Z,99.90
2019-04-01T18:43:24.273Z,99.90
2019-04-01T18:45:54.358Z,99.90
2019-04-01T18:48:24.373Z,99.90
2019-04-01T18:50:55.850Z,99.90
2019-04-01T18:53:28.526Z,99.90
2019-04-01T18:55:57.705Z,99.90
2019-04-01T18:58:27.870Z,99.90
2019-04-01T19:00:57.895Z,99.90
2019-04-01T19:03:27.994Z,99.90
2019-04-01T19:05:58.137Z,99.90
2019-04-01T19:08:28.052Z,99.90
2019-04-01T19:11:02.439Z,99.90
2019-04-01T19:13:29.751Z,99.90
2019-04-01T19:16:01.021Z,99.90
2019-04-01T19:18:31.495Z,99.90
2019-04-01T19:21:04.736Z,99.90
2019-04-01T19:23:34.010Z,99.90
2019-04-01T19:26:04.057Z,99.90
2019-04-01T19:28:34.222Z,99.90
2019-04-01T19:31:04.319Z,99.90
2019-04-01T19:33:34.359Z,99.90
2019-04-01T19:36:04.374Z,99.90
2019-04-01T19:38:34.361Z,99.90
2019-04-01T19:41:04.395Z,99.90
2019-04-01T19:43:34.386Z,99.90
2019-04-01T19:46:04.500Z,99.90
2019-04-01T19:48:34.500Z,99.90
2019-04-01T19:51:04.438Z,99.90
2019-04-01T19:53:34.512Z,99.90
2019-04-01T19:56:04.470Z,99.90
2019-04-01T19:58:34.615Z,99.90
2019-04-01T20:01:04.633Z,99.90
2019-04-01T20:03:34.775Z,99.90
2019-04-01T20:06:07.294Z,99.90
2019-04-01T20:08:36.300Z,99.90
2019-04-01T20:11:06.325Z,99.90
2019-04-01T20:13:36.379Z,99.90
2019-04-01T20:16:06.439Z,99.90
2019-04-01T20:18:36.479Z,99.90
2019-04-01T20:21:06.459Z,99.90
2019-04-01T20:23:36.489Z,99.90
2019-04-01T20:26:06.369Z,99.90
2019-04-01T20:28:36.262Z,99.90
2019-04-01T20:31:06.451Z,99.90
2019-04-01T20:33:38.937Z,99.90
2019-04-01T20:36:08.882Z,99.90
2019-04-01T20:38:38.930Z,99.90
2019-04-01T20:41:08.848Z,99.90
2019-04-01T20:43:38.870Z,99.90
2019-04-01T20:46:08.930Z,99.90
2019-04-01T20:48:38.939Z,99.90
2019-04-01T20:51:08.855Z,99.90
2019-04-01T20:53:38.834Z,99.90
2019-04-01T20:56:08.745Z,99.90
2019-04-01T20:58:38.739Z,99.90
2019-04-01T21:01:08.612Z,99.90
2019-04-01T21:03:38.593Z,99.90
2019-04-01T21:06:08.602Z,99.90
2019-04-01T21:08:38.612Z,99.90
2019-04-01T21:11:08.530Z,99.90
2019-04-01T21:13:38.455Z,99.90
2019-04-01T21:16:08.550Z,99.90
2019-04-01T21:18:38.389Z,99.90
2019-04-01T21:21:08.326Z,99.90
2019-04-01T21:23:38.225Z,99.90
2019-04-01T21:26:08.108Z,99.90
2019-04-01T21:28:38.085Z,99.90
2019-04-01T21:31:08.115Z,99.90
2019-04-01T21:33:38.147Z,99.90
2019-04-01T21:36:08.157Z,99.90
2019-04-01T21:38:39.127Z,99.90
2019-04-01T21:41:09.095Z,99.90
2019-04-01T21:43:39.120Z,99.90
2019-04-01T21:46:09.143Z,99.90
2019-04-01T21:48:39.832Z,99.90
2019-04-01T21:51:09.907Z,99.90
2019-04-01T21:53:39.829Z,99.90
2019-04-01T21:56:09.802Z,99.90
2019-04-01T21:58:39.851Z,99.90
2019-04-01T22:01:10.357Z,99.90
2019-04-01T22:03:41.122Z,99.90
2019-04-01T22:06:12.346Z,99.90
2019-04-01T22:08:42.395Z,99.90
2019-04-01T22:11:12.393Z,99.90
2019-04-01T22:13:42.394Z,99.90
2019-04-01T22:16:12.751Z,99.90
2019-04-01T22:18:42.992Z,99.90
2019-04-01T22:21:13.612Z,99.90
2019-04-01T22:23:43.566Z,99.90
2019-04-01T22:26:13.615Z,99.90
2019-04-01T22:28:43.735Z,99.90
2019-04-01T22:31:15.185Z,99.90
2019-04-01T22:33:45.444Z,99.90
2019-04-01T22:36:15.361Z,99.90
2019-04-01T22:38:46.210Z,99.90
2019-04-01T22:41:16.210Z,99.90
2019-04-01T22:43:46.235Z,99.90
2019-04-01T22:46:16.276Z,99.90
2019-04-01T22:48:47.522Z,99.90
2019-04-01T22:51:17.486Z,99.90
2019-04-01T22:53:47.417Z,99.90
2019-04-01T22:56:17.330Z,99.90
2019-04-01T22:58:47.236Z,99.90
2019-04-01T23:01:17.136Z,99.90
2019-04-01T23:03:46.994Z,99.90
2019-04-01T23:06:16.901Z,99.90
2019-04-01T23:08:46.833Z,99.90
2019-04-01T23:11:16.716Z,99.90
2019-04-01T23:13:48.194Z,99.90
2019-04-01T23:16:18.283Z,99.90
2019-04-01T23:18:48.287Z,99.90
2019-04-01T23:21:18.235Z,99.90
2019-04-01T23:23:48.199Z,99.90
2019-04-01T23:26:18.079Z,99.90
2019-04-01T23:28:47.969Z,99.90
2019-04-01T23:31:18.195Z,99.90
2019-04-01T23:33:48.514Z,99.90
2019-04-01T23:36:18.386Z,99.90
2019-04-01T23:38:49.257Z,99.90
2019-04-01T23:41:19.170Z,99.90
2019-04-01T23:43:49.160Z,99.90
2019-04-01T23:46:19.514Z,99.90
2019-04-01T23:48:49.579Z,99.90
2019-04-01T23:51:19.495Z,99.90
2019-04-01T23:53:49.546Z,99.90
2019-04-01T23:56:19.461Z,99.90
2019-04-01T23:58:51.024Z,99.90
